sensor_id;sensor_type;location;lat;lon;timestamp;P1;durP1;ratioP1;P2;durP2;ratioP2
79128;SDS011;68529;43.286;23.360;2023-07-29T00:01:13;3.00;;;2.80;;
79128;SDS011;68529;43.286;23.360;2023-07-29T00:03:38;3.08;;;2.83;;
79128;SDS011;68529;43.286;23.360;2023-07-29T00:06:03;3.47;;;3.25;;
79128;SDS011;68529;43.286;23.360;2023-07-29T00:08:29;4.90;;;2.88;;
79128;SDS011;68529;43.286;23.360;2023-07-29T00:10:54;4.00;;;2.90;;
79128;SDS011;68529;43.286;23.360;2023-07-29T00:13:20;4.82;;;2.78;;
79128;SDS011;68529;43.286;23.360;2023-07-29T00:15:45;3.25;;;2.95;;
79128;SDS011;68529;43.286;23.360;2023-07-29T00:18:10;3.90;;;2.90;;
79128;SDS011;68529;43.286;23.360;2023-07-29T00:20:36;3.33;;;3.03;;
79128;SDS011;68529;43.286;23.360;2023-07-29T00:23:01;5.07;;;3.00;;
79128;SDS011;68529;43.286;23.360;2023-07-29T00:25:27;3.50;;;3.20;;
79128;SDS011;68529;43.286;23.360;2023-07-29T00:27:55;4.10;;;2.90;;
79128;SDS011;68529;43.286;23.360;2023-07-29T00:30:21;5.40;;;3.03;;
79128;SDS011;68529;43.286;23.360;2023-07-29T00:32:46;3.08;;;2.78;;
79128;SDS011;68529;43.286;23.360;2023-07-29T00:35:12;3.75;;;2.90;;
79128;SDS011;68529;43.286;23.360;2023-07-29T00:37:37;2.92;;;2.63;;
79128;SDS011;68529;43.286;23.360;2023-07-29T00:40:03;3.30;;;3.00;;
79128;SDS011;68529;43.286;23.360;2023-07-29T00:42:34;3.35;;;3.10;;
79128;SDS011;68529;43.286;23.360;2023-07-29T00:45:00;2.95;;;2.75;;
79128;SDS011;68529;43.286;23.360;2023-07-29T00:47:25;3.13;;;2.83;;
79128;SDS011;68529;43.286;23.360;2023-07-29T00:49:51;3.20;;;2.90;;
79128;SDS011;68529;43.286;23.360;2023-07-29T00:52:16;2.92;;;2.72;;
79128;SDS011;68529;43.286;23.360;2023-07-29T00:54:42;3.13;;;2.83;;
79128;SDS011;68529;43.286;23.360;2023-07-29T00:57:10;3.60;;;2.90;;
79128;SDS011;68529;43.286;23.360;2023-07-29T00:59:39;3.03;;;2.83;;
79128;SDS011;68529;43.286;23.360;2023-07-29T01:02:05;3.20;;;2.90;;
79128;SDS011;68529;43.286;23.360;2023-07-29T01:04:31;3.42;;;3.08;;
79128;SDS011;68529;43.286;23.360;2023-07-29T01:09:40;3.42;;;3.13;;
79128;SDS011;68529;43.286;23.360;2023-07-29T01:12:27;3.13;;;2.92;;
79128;SDS011;68529;43.286;23.360;2023-07-29T01:15:04;2.97;;;2.78;;
79128;SDS011;68529;43.286;23.360;2023-07-29T01:17:40;2.90;;;2.60;;
79128;SDS011;68529;43.286;23.360;2023-07-29T01:20:12;3.08;;;2.80;;
79128;SDS011;68529;43.286;23.360;2023-07-29T01:22:40;3.15;;;2.95;;
79128;SDS011;68529;43.286;23.360;2023-07-29T01:25:06;3.28;;;3.08;;
79128;SDS011;68529;43.286;23.360;2023-07-29T01:27:32;3.05;;;2.85;;
79128;SDS011;68529;43.286;23.360;2023-07-29T01:29:58;3.00;;;2.80;;
79128;SDS011;68529;43.286;23.360;2023-07-29T01:37:42;3.83;;;3.30;;
79128;SDS011;68529;43.286;23.360;2023-07-29T01:40:10;3.17;;;2.80;;
79128;SDS011;68529;43.286;23.360;2023-07-29T01:42:36;3.10;;;2.80;;
79128;SDS011;68529;43.286;23.360;2023-07-29T01:45:02;3.22;;;3.03;;
79128;SDS011;68529;43.286;23.360;2023-07-29T01:47:29;3.25;;;2.95;;
79128;SDS011;68529;43.286;23.360;2023-07-29T01:49:54;3.28;;;2.97;;
79128;SDS011;68529;43.286;23.360;2023-07-29T01:52:19;3.10;;;2.63;;
79128;SDS011;68529;43.286;23.360;2023-07-29T01:54:45;3.47;;;3.13;;
79128;SDS011;68529;43.286;23.360;2023-07-29T01:57:10;3.25;;;2.80;;
79128;SDS011;68529;43.286;23.360;2023-07-29T01:59:36;3.35;;;3.15;;
79128;SDS011;68529;43.286;23.360;2023-07-29T02:02:01;3.30;;;3.10;;
79128;SDS011;68529;43.286;23.360;2023-07-29T02:04:27;4.18;;;2.80;;
79128;SDS011;68529;43.286;23.360;2023-07-29T02:06:53;3.13;;;2.92;;
79128;SDS011;68529;43.286;23.360;2023-07-29T02:09:18;2.60;;;2.40;;
79128;SDS011;68529;43.286;23.360;2023-07-29T02:11:44;3.17;;;2.97;;
79128;SDS011;68529;43.286;23.360;2023-07-29T02:14:09;3.08;;;2.88;;
79128;SDS011;68529;43.286;23.360;2023-07-29T02:16:34;3.30;;;2.78;;
79128;SDS011;68529;43.286;23.360;2023-07-29T02:19:00;3.13;;;2.90;;
79128;SDS011;68529;43.286;23.360;2023-07-29T02:21:25;5.25;;;3.50;;
79128;SDS011;68529;43.286;23.360;2023-07-29T02:23:51;3.03;;;2.83;;
79128;SDS011;68529;43.286;23.360;2023-07-29T02:26:16;3.05;;;2.85;;
79128;SDS011;68529;43.286;23.360;2023-07-29T02:28:42;3.40;;;3.10;;
79128;SDS011;68529;43.286;23.360;2023-07-29T02:31:21;3.40;;;3.10;;
79128;SDS011;68529;43.286;23.360;2023-07-29T02:33:47;3.22;;;2.92;;
79128;SDS011;68529;43.286;23.360;2023-07-29T02:36:14;3.20;;;3.00;;
79128;SDS011;68529;43.286;23.360;2023-07-29T02:38:40;3.10;;;2.90;;
79128;SDS011;68529;43.286;23.360;2023-07-29T02:41:06;3.30;;;3.00;;
79128;SDS011;68529;43.286;23.360;2023-07-29T02:43:34;3.22;;;2.72;;
79128;SDS011;68529;43.286;23.360;2023-07-29T02:45:59;3.10;;;2.83;;
79128;SDS011;68529;43.286;23.360;2023-07-29T02:48:25;2.85;;;2.67;;
79128;SDS011;68529;43.286;23.360;2023-07-29T02:50:50;3.55;;;3.25;;
79128;SDS011;68529;43.286;23.360;2023-07-29T02:53:16;3.28;;;2.88;;
79128;SDS011;68529;43.286;23.360;2023-07-29T02:55:41;2.88;;;2.67;;
79128;SDS011;68529;43.286;23.360;2023-07-29T02:58:07;3.08;;;2.75;;
79128;SDS011;68529;43.286;23.360;2023-07-29T03:00:33;4.32;;;2.75;;
79128;SDS011;68529;43.286;23.360;2023-07-29T03:02:58;2.87;;;2.67;;
79128;SDS011;68529;43.286;23.360;2023-07-29T03:05:26;3.22;;;3.03;;
79128;SDS011;68529;43.286;23.360;2023-07-29T03:07:52;3.33;;;2.83;;
79128;SDS011;68529;43.286;23.360;2023-07-29T03:10:17;3.85;;;3.05;;
79128;SDS011;68529;43.286;23.360;2023-07-29T03:12:43;3.28;;;2.97;;
79128;SDS011;68529;43.286;23.360;2023-07-29T03:15:08;3.35;;;3.05;;
79128;SDS011;68529;43.286;23.360;2023-07-29T03:17:34;47.17;;;41.23;;
79128;SDS011;68529;43.286;23.360;2023-07-29T03:19:59;989.65;;;535.75;;
79128;SDS011;68529;43.286;23.360;2023-07-29T03:22:24;1570.27;;;797.20;;
79128;SDS011;68529;43.286;23.360;2023-07-29T03:24:50;987.60;;;584.53;;
79128;SDS011;68529;43.286;23.360;2023-07-29T03:27:15;1265.57;;;730.13;;
79128;SDS011;68529;43.286;23.360;2023-07-29T03:29:41;946.25;;;559.70;;
79128;SDS011;68529;43.286;23.360;2023-07-29T03:32:06;605.22;;;397.90;;
79128;SDS011;68529;43.286;23.360;2023-07-29T03:34:32;734.38;;;435.48;;
79128;SDS011;68529;43.286;23.360;2023-07-29T03:36:57;44.35;;;28.65;;
79128;SDS011;68529;43.286;23.360;2023-07-29T03:39:24;320.70;;;175.97;;
79128;SDS011;68529;43.286;23.360;2023-07-29T03:41:49;590.03;;;364.17;;
79128;SDS011;68529;43.286;23.360;2023-07-29T03:44:14;192.10;;;123.33;;
79128;SDS011;68529;43.286;23.360;2023-07-29T03:46:40;109.93;;;73.00;;
79128;SDS011;68529;43.286;23.360;2023-07-29T03:49:05;44.93;;;29.77;;
79128;SDS011;68529;43.286;23.360;2023-07-29T03:51:30;54.10;;;39.83;;
79128;SDS011;68529;43.286;23.360;2023-07-29T03:53:56;82.90;;;54.87;;
79128;SDS011;68529;43.286;23.360;2023-07-29T03:56:21;845.95;;;461.27;;
79128;SDS011;68529;43.286;23.360;2023-07-29T03:58:46;408.58;;;236.57;;
79128;SDS011;68529;43.286;23.360;2023-07-29T04:01:15;43.70;;;29.52;;
79128;SDS011;68529;43.286;23.360;2023-07-29T04:03:40;9.07;;;7.35;;
79128;SDS011;68529;43.286;23.360;2023-07-29T04:06:05;4.07;;;3.33;;
79128;SDS011;68529;43.286;23.360;2023-07-29T04:08:31;3.60;;;3.30;;
79128;SDS011;68529;43.286;23.360;2023-07-29T04:10:56;3.15;;;2.95;;
79128;SDS011;68529;43.286;23.360;2023-07-29T04:13:22;4.32;;;3.30;;
79128;SDS011;68529;43.286;23.360;2023-07-29T04:15:47;3.53;;;3.22;;
79128;SDS011;68529;43.286;23.360;2023-07-29T04:18:13;3.58;;;3.28;;
79128;SDS011;68529;43.286;23.360;2023-07-29T04:20:39;5.47;;;3.40;;
79128;SDS011;68529;43.286;23.360;2023-07-29T04:23:04;3.15;;;2.95;;
79128;SDS011;68529;43.286;23.360;2023-07-29T04:25:29;4.93;;;3.67;;
79128;SDS011;68529;43.286;23.360;2023-07-29T04:27:55;3.33;;;3.13;;
79128;SDS011;68529;43.286;23.360;2023-07-29T04:30:22;5.75;;;3.78;;
79128;SDS011;68529;43.286;23.360;2023-07-29T04:32:48;3.45;;;3.03;;
79128;SDS011;68529;43.286;23.360;2023-07-29T04:35:13;3.38;;;3.10;;
79128;SDS011;68529;43.286;23.360;2023-07-29T04:37:39;6.85;;;4.18;;
79128;SDS011;68529;43.286;23.360;2023-07-29T04:40:05;4.07;;;3.33;;
79128;SDS011;68529;43.286;23.360;2023-07-29T04:42:31;4.55;;;3.00;;
79128;SDS011;68529;43.286;23.360;2023-07-29T04:44:56;5.15;;;3.20;;
79128;SDS011;68529;43.286;23.360;2023-07-29T04:47:22;5.57;;;4.68;;
79128;SDS011;68529;43.286;23.360;2023-07-29T04:49:48;5.40;;;3.10;;
79128;SDS011;68529;43.286;23.360;2023-07-29T04:52:13;4.45;;;3.50;;
79128;SDS011;68529;43.286;23.360;2023-07-29T04:54:40;4.13;;;3.10;;
79128;SDS011;68529;43.286;23.360;2023-07-29T04:57:05;2.72;;;2.53;;
79128;SDS011;68529;43.286;23.360;2023-07-29T04:59:31;2.65;;;2.45;;
79128;SDS011;68529;43.286;23.360;2023-07-29T05:01:56;3.45;;;3.08;;
79128;SDS011;68529;43.286;23.360;2023-07-29T05:04:22;2.85;;;2.65;;
79128;SDS011;68529;43.286;23.360;2023-07-29T05:06:48;5.18;;;3.20;;
79128;SDS011;68529;43.286;23.360;2023-07-29T05:09:17;4.57;;;3.83;;
79128;SDS011;68529;43.286;23.360;2023-07-29T05:11:43;3.80;;;3.50;;
79128;SDS011;68529;43.286;23.360;2023-07-29T05:14:14;7.53;;;6.72;;
79128;SDS011;68529;43.286;23.360;2023-07-29T05:16:40;8.18;;;7.38;;
79128;SDS011;68529;43.286;23.360;2023-07-29T05:19:05;5.20;;;4.57;;
79128;SDS011;68529;43.286;23.360;2023-07-29T05:21:31;4.40;;;3.95;;
79128;SDS011;68529;43.286;23.360;2023-07-29T05:23:56;3.25;;;3.00;;
79128;SDS011;68529;43.286;23.360;2023-07-29T05:26:22;5.60;;;3.22;;
79128;SDS011;68529;43.286;23.360;2023-07-29T05:28:48;5.68;;;3.58;;
79128;SDS011;68529;43.286;23.360;2023-07-29T05:31:13;3.30;;;3.10;;
79128;SDS011;68529;43.286;23.360;2023-07-29T05:33:39;4.50;;;3.00;;
79128;SDS011;68529;43.286;23.360;2023-07-29T05:36:04;18.35;;;4.57;;
79128;SDS011;68529;43.286;23.360;2023-07-29T05:38:30;3.25;;;2.95;;
79128;SDS011;68529;43.286;23.360;2023-07-29T05:40:55;5.18;;;2.70;;
79128;SDS011;68529;43.286;23.360;2023-07-29T05:43:21;5.85;;;3.63;;
79128;SDS011;68529;43.286;23.360;2023-07-29T05:45:46;3.63;;;3.33;;
79128;SDS011;68529;43.286;23.360;2023-07-29T05:48:12;3.80;;;3.47;;
79128;SDS011;68529;43.286;23.360;2023-07-29T05:50:37;4.90;;;3.40;;
79128;SDS011;68529;43.286;23.360;2023-07-29T05:53:03;6.95;;;6.03;;
79128;SDS011;68529;43.286;23.360;2023-07-29T05:55:28;4.13;;;3.33;;
79128;SDS011;68529;43.286;23.360;2023-07-29T05:57:54;3.75;;;3.33;;
79128;SDS011;68529;43.286;23.360;2023-07-29T06:00:20;6.10;;;4.32;;
79128;SDS011;68529;43.286;23.360;2023-07-29T06:02:45;6.63;;;3.70;;
79128;SDS011;68529;43.286;23.360;2023-07-29T06:05:11;3.05;;;2.47;;
79128;SDS011;68529;43.286;23.360;2023-07-29T06:07:36;3.95;;;3.00;;
79128;SDS011;68529;43.286;23.360;2023-07-29T06:10:02;6.10;;;5.00;;
79128;SDS011;68529;43.286;23.360;2023-07-29T06:12:27;7.00;;;5.43;;
79128;SDS011;68529;43.286;23.360;2023-07-29T06:14:53;7.50;;;6.55;;
79128;SDS011;68529;43.286;23.360;2023-07-29T06:17:18;7.53;;;5.90;;
79128;SDS011;68529;43.286;23.360;2023-07-29T06:19:43;5.38;;;4.13;;
79128;SDS011;68529;43.286;23.360;2023-07-29T06:22:09;4.95;;;4.28;;
79128;SDS011;68529;43.286;23.360;2023-07-29T06:24:35;4.68;;;3.53;;
79128;SDS011;68529;43.286;23.360;2023-07-29T06:27:00;4.13;;;3.40;;
79128;SDS011;68529;43.286;23.360;2023-07-29T06:29:26;3.10;;;2.80;;
79128;SDS011;68529;43.286;23.360;2023-07-29T06:31:51;6.03;;;3.90;;
79128;SDS011;68529;43.286;23.360;2023-07-29T06:34:20;3.10;;;2.85;;
79128;SDS011;68529;43.286;23.360;2023-07-29T06:36:45;3.35;;;3.05;;
79128;SDS011;68529;43.286;23.360;2023-07-29T06:39:10;3.72;;;2.95;;
79128;SDS011;68529;43.286;23.360;2023-07-29T06:41:36;4.78;;;2.88;;
79128;SDS011;68529;43.286;23.360;2023-07-29T06:44:01;4.80;;;2.97;;
79128;SDS011;68529;43.286;23.360;2023-07-29T06:46:27;3.10;;;2.45;;
79128;SDS011;68529;43.286;23.360;2023-07-29T06:48:52;4.18;;;3.00;;
79128;SDS011;68529;43.286;23.360;2023-07-29T06:51:17;2.70;;;2.50;;
79128;SDS011;68529;43.286;23.360;2023-07-29T06:53:43;3.10;;;2.80;;
79128;SDS011;68529;43.286;23.360;2023-07-29T06:56:08;3.38;;;3.10;;
79128;SDS011;68529;43.286;23.360;2023-07-29T06:58:34;3.13;;;2.88;;
79128;SDS011;68529;43.286;23.360;2023-07-29T07:00:59;3.15;;;2.70;;
79128;SDS011;68529;43.286;23.360;2023-07-29T07:03:25;3.17;;;2.88;;
79128;SDS011;68529;43.286;23.360;2023-07-29T07:05:50;3.50;;;3.10;;
79128;SDS011;68529;43.286;23.360;2023-07-29T07:08:16;5.38;;;3.33;;
79128;SDS011;68529;43.286;23.360;2023-07-29T07:10:41;3.35;;;2.95;;
79128;SDS011;68529;43.286;23.360;2023-07-29T07:13:07;4.43;;;2.67;;
79128;SDS011;68529;43.286;23.360;2023-07-29T07:15:32;2.60;;;2.38;;
79128;SDS011;68529;43.286;23.360;2023-07-29T07:17:57;3.78;;;2.58;;
79128;SDS011;68529;43.286;23.360;2023-07-29T07:20:23;3.72;;;2.97;;
79128;SDS011;68529;43.286;23.360;2023-07-29T07:22:48;3.47;;;3.17;;
79128;SDS011;68529;43.286;23.360;2023-07-29T07:25:14;4.40;;;3.70;;
79128;SDS011;68529;43.286;23.360;2023-07-29T07:27:39;2.75;;;2.55;;
79128;SDS011;68529;43.286;23.360;2023-07-29T07:30:04;2.97;;;2.72;;
79128;SDS011;68529;43.286;23.360;2023-07-29T07:32:30;5.30;;;3.30;;
79128;SDS011;68529;43.286;23.360;2023-07-29T07:34:56;4.78;;;2.60;;
79128;SDS011;68529;43.286;23.360;2023-07-29T07:37:21;2.20;;;2.10;;
79128;SDS011;68529;43.286;23.360;2023-07-29T07:39:46;3.10;;;2.80;;
79128;SDS011;68529;43.286;23.360;2023-07-29T07:42:12;3.10;;;2.90;;
79128;SDS011;68529;43.286;23.360;2023-07-29T07:44:37;2.78;;;2.58;;
79128;SDS011;68529;43.286;23.360;2023-07-29T07:47:03;4.07;;;3.03;;
79128;SDS011;68529;43.286;23.360;2023-07-29T07:49:28;2.92;;;2.72;;
79128;SDS011;68529;43.286;23.360;2023-07-29T07:51:54;4.05;;;2.85;;
79128;SDS011;68529;43.286;23.360;2023-07-29T07:54:19;3.10;;;2.80;;
79128;SDS011;68529;43.286;23.360;2023-07-29T07:56:44;2.97;;;2.47;;
79128;SDS011;68529;43.286;23.360;2023-07-29T07:59:10;2.58;;;2.38;;
79128;SDS011;68529;43.286;23.360;2023-07-29T08:01:35;2.60;;;2.40;;
79128;SDS011;68529;43.286;23.360;2023-07-29T08:04:02;2.70;;;2.47;;
79128;SDS011;68529;43.286;23.360;2023-07-29T08:06:28;3.80;;;2.90;;
79128;SDS011;68529;43.286;23.360;2023-07-29T08:08:53;5.18;;;2.30;;
79128;SDS011;68529;43.286;23.360;2023-07-29T08:11:19;2.92;;;2.63;;
79128;SDS011;68529;43.286;23.360;2023-07-29T08:13:44;2.88;;;2.67;;
79128;SDS011;68529;43.286;23.360;2023-07-29T08:16:10;3.30;;;2.78;;
79128;SDS011;68529;43.286;23.360;2023-07-29T08:18:35;3.55;;;2.63;;
79128;SDS011;68529;43.286;23.360;2023-07-29T08:21:00;3.30;;;2.30;;
79128;SDS011;68529;43.286;23.360;2023-07-29T08:23:33;5.40;;;2.95;;
79128;SDS011;68529;43.286;23.360;2023-07-29T08:26:00;6.68;;;3.08;;
79128;SDS011;68529;43.286;23.360;2023-07-29T08:28:34;4.63;;;2.97;;
79128;SDS011;68529;43.286;23.360;2023-07-29T08:31:01;3.25;;;2.55;;
79128;SDS011;68529;43.286;23.360;2023-07-29T08:33:27;3.30;;;3.00;;
79128;SDS011;68529;43.286;23.360;2023-07-29T08:35:53;4.82;;;3.10;;
79128;SDS011;68529;43.286;23.360;2023-07-29T08:38:19;3.67;;;3.05;;
79128;SDS011;68529;43.286;23.360;2023-07-29T08:40:46;4.93;;;2.95;;
79128;SDS011;68529;43.286;23.360;2023-07-29T08:43:18;7.07;;;2.95;;
79128;SDS011;68529;43.286;23.360;2023-07-29T08:45:46;4.78;;;3.03;;
79128;SDS011;68529;43.286;23.360;2023-07-29T08:48:11;3.22;;;2.50;;
79128;SDS011;68529;43.286;23.360;2023-07-29T08:50:41;4.03;;;2.95;;
79128;SDS011;68529;43.286;23.360;2023-07-29T08:53:08;6.00;;;2.65;;
79128;SDS011;68529;43.286;23.360;2023-07-29T08:55:35;11.55;;;3.50;;
79128;SDS011;68529;43.286;23.360;2023-07-29T08:58:00;4.22;;;3.50;;
79128;SDS011;68529;43.286;23.360;2023-07-29T09:00:27;4.07;;;3.38;;
79128;SDS011;68529;43.286;23.360;2023-07-29T09:02:53;3.85;;;2.92;;
79128;SDS011;68529;43.286;23.360;2023-07-29T09:05:20;4.60;;;2.90;;
79128;SDS011;68529;43.286;23.360;2023-07-29T09:07:46;5.22;;;2.60;;
79128;SDS011;68529;43.286;23.360;2023-07-29T09:10:13;2.85;;;2.30;;
79128;SDS011;68529;43.286;23.360;2023-07-29T09:12:39;3.28;;;2.50;;
79128;SDS011;68529;43.286;23.360;2023-07-29T09:15:05;3.40;;;2.70;;
79128;SDS011;68529;43.286;23.360;2023-07-29T09:17:31;12.70;;;4.47;;
79128;SDS011;68529;43.286;23.360;2023-07-29T09:19:58;4.57;;;2.35;;
79128;SDS011;68529;43.286;23.360;2023-07-29T09:22:23;6.90;;;2.90;;
79128;SDS011;68529;43.286;23.360;2023-07-29T09:24:51;4.13;;;2.72;;
79128;SDS011;68529;43.286;23.360;2023-07-29T09:27:26;3.20;;;2.67;;
79128;SDS011;68529;43.286;23.360;2023-07-29T09:29:52;3.30;;;2.72;;
79128;SDS011;68529;43.286;23.360;2023-07-29T09:32:19;4.43;;;2.58;;
79128;SDS011;68529;43.286;23.360;2023-07-29T09:34:46;2.42;;;2.22;;
79128;SDS011;68529;43.286;23.360;2023-07-29T09:37:20;2.20;;;1.90;;
79128;SDS011;68529;43.286;23.360;2023-07-29T09:39:47;3.13;;;2.28;;
79128;SDS011;68529;43.286;23.360;2023-07-29T09:42:19;9.18;;;2.88;;
79128;SDS011;68529;43.286;23.360;2023-07-29T09:47:23;2.55;;;2.10;;
79128;SDS011;68529;43.286;23.360;2023-07-29T09:49:50;2.80;;;1.88;;
79128;SDS011;68529;43.286;23.360;2023-07-29T09:52:18;23.92;;;5.65;;
79128;SDS011;68529;43.286;23.360;2023-07-29T09:54:54;12.25;;;3.10;;
79128;SDS011;68529;43.286;23.360;2023-07-29T09:57:35;4.15;;;2.10;;
79128;SDS011;68529;43.286;23.360;2023-07-29T10:00:04;10.00;;;3.28;;
79128;SDS011;68529;43.286;23.360;2023-07-29T10:02:35;3.40;;;1.88;;
79128;SDS011;68529;43.286;23.360;2023-07-29T10:05:04;2.25;;;2.05;;
79128;SDS011;68529;43.286;23.360;2023-07-29T10:07:31;3.78;;;1.85;;
79128;SDS011;68529;43.286;23.360;2023-07-29T10:09:58;2.58;;;2.38;;
79128;SDS011;68529;43.286;23.360;2023-07-29T10:12:24;2.67;;;2.08;;
79128;SDS011;68529;43.286;23.360;2023-07-29T10:14:50;2.08;;;1.83;;
79128;SDS011;68529;43.286;23.360;2023-07-29T10:17:19;2.30;;;1.80;;
79128;SDS011;68529;43.286;23.360;2023-07-29T10:19:47;3.15;;;2.00;;
79128;SDS011;68529;43.286;23.360;2023-07-29T10:22:15;2.15;;;1.98;;
79128;SDS011;68529;43.286;23.360;2023-07-29T10:24:45;5.15;;;2.00;;
79128;SDS011;68529;43.286;23.360;2023-07-29T10:27:14;3.25;;;2.00;;
79128;SDS011;68529;43.286;23.360;2023-07-29T10:29:44;3.00;;;1.75;;
79128;SDS011;68529;43.286;23.360;2023-07-29T10:32:11;3.58;;;2.20;;
79128;SDS011;68529;43.286;23.360;2023-07-29T10:34:37;3.20;;;2.13;;
79128;SDS011;68529;43.286;23.360;2023-07-29T10:37:04;4.60;;;1.63;;
79128;SDS011;68529;43.286;23.360;2023-07-29T10:39:37;2.33;;;1.88;;
79128;SDS011;68529;43.286;23.360;2023-07-29T10:42:05;1.70;;;1.60;;
79128;SDS011;68529;43.286;23.360;2023-07-29T10:49:50;2.55;;;1.90;;
79128;SDS011;68529;43.286;23.360;2023-07-29T10:52:27;1.60;;;1.50;;
79128;SDS011;68529;43.286;23.360;2023-07-29T10:57:51;3.70;;;3.30;;
79128;SDS011;68529;43.286;23.360;2023-07-29T11:00:18;2.58;;;2.38;;
79128;SDS011;68529;43.286;23.360;2023-07-29T11:02:56;2.28;;;2.00;;
79128;SDS011;68529;43.286;23.360;2023-07-29T11:05:25;1.80;;;1.70;;
79128;SDS011;68529;43.286;23.360;2023-07-29T11:07:51;1.67;;;1.58;;
79128;SDS011;68529;43.286;23.360;2023-07-29T11:10:16;1.70;;;1.60;;
79128;SDS011;68529;43.286;23.360;2023-07-29T11:15:16;2.55;;;1.80;;
79128;SDS011;68529;43.286;23.360;2023-07-29T11:17:50;2.67;;;1.70;;
79128;SDS011;68529;43.286;23.360;2023-07-29T11:20:23;1.92;;;1.75;;
79128;SDS011;68529;43.286;23.360;2023-07-29T11:22:50;1.98;;;1.60;;
79128;SDS011;68529;43.286;23.360;2023-07-29T11:25:18;1.75;;;1.38;;
79128;SDS011;68529;43.286;23.360;2023-07-29T11:27:44;5.13;;;1.70;;
79128;SDS011;68529;43.286;23.360;2023-07-29T11:30:11;2.67;;;1.58;;
79128;SDS011;68529;43.286;23.360;2023-07-29T11:32:38;3.53;;;1.65;;
79128;SDS011;68529;43.286;23.360;2023-07-29T11:35:08;2.50;;;1.90;;
79128;SDS011;68529;43.286;23.360;2023-07-29T11:37:39;1.60;;;1.50;;
79128;SDS011;68529;43.286;23.360;2023-07-29T11:40:06;2.40;;;1.90;;
79128;SDS011;68529;43.286;23.360;2023-07-29T11:42:33;4.68;;;1.90;;
79128;SDS011;68529;43.286;23.360;2023-07-29T11:44:59;1.42;;;1.33;;
79128;SDS011;68529;43.286;23.360;2023-07-29T11:47:25;4.35;;;2.10;;
79128;SDS011;68529;43.286;23.360;2023-07-29T11:49:51;3.38;;;2.25;;
79128;SDS011;68529;43.286;23.360;2023-07-29T11:52:17;4.15;;;3.20;;
79128;SDS011;68529;43.286;23.360;2023-07-29T11:54:44;3.17;;;2.22;;
79128;SDS011;68529;43.286;23.360;2023-07-29T11:57:11;2.05;;;1.95;;
79128;SDS011;68529;43.286;23.360;2023-07-29T11:59:38;1.75;;;1.65;;
79128;SDS011;68529;43.286;23.360;2023-07-29T12:02:05;2.28;;;2.10;;
79128;SDS011;68529;43.286;23.360;2023-07-29T12:04:34;2.10;;;1.92;;
79128;SDS011;68529;43.286;23.360;2023-07-29T12:07:00;5.93;;;2.63;;
79128;SDS011;68529;43.286;23.360;2023-07-29T12:09:27;1.92;;;1.63;;
79128;SDS011;68529;43.286;23.360;2023-07-29T12:11:53;2.03;;;1.83;;
79128;SDS011;68529;43.286;23.360;2023-07-29T12:14:19;8.70;;;2.15;;
79128;SDS011;68529;43.286;23.360;2023-07-29T12:16:48;1.50;;;1.40;;
79128;SDS011;68529;43.286;23.360;2023-07-29T12:19:14;2.00;;;1.90;;
79128;SDS011;68529;43.286;23.360;2023-07-29T12:21:43;2.13;;;1.92;;
79128;SDS011;68529;43.286;23.360;2023-07-29T12:24:09;2.28;;;1.98;;
79128;SDS011;68529;43.286;23.360;2023-07-29T12:26:37;2.53;;;2.30;;
79128;SDS011;68529;43.286;23.360;2023-07-29T12:29:15;2.60;;;1.70;;
79128;SDS011;68529;43.286;23.360;2023-07-29T12:31:42;1.88;;;1.77;;
79128;SDS011;68529;43.286;23.360;2023-07-29T12:34:07;1.88;;;1.77;;
79128;SDS011;68529;43.286;23.360;2023-07-29T12:36:46;2.38;;;1.85;;
79128;SDS011;68529;43.286;23.360;2023-07-29T12:39:55;1.67;;;1.58;;
79128;SDS011;68529;43.286;23.360;2023-07-29T12:42:05;1.70;;;1.60;;
79128;SDS011;68529;43.286;23.360;2023-07-29T12:44:31;5.25;;;2.35;;
79128;SDS011;68529;43.286;23.360;2023-07-29T12:46:58;2.50;;;1.80;;
79128;SDS011;68529;43.286;23.360;2023-07-29T12:49:28;1.80;;;1.70;;
79128;SDS011;68529;43.286;23.360;2023-07-29T12:51:54;2.05;;;1.70;;
79128;SDS011;68529;43.286;23.360;2023-07-29T12:54:20;1.77;;;1.67;;
79128;SDS011;68529;43.286;23.360;2023-07-29T12:56:45;3.92;;;1.85;;
79128;SDS011;68529;43.286;23.360;2023-07-29T12:59:11;7.85;;;1.83;;
79128;SDS011;68529;43.286;23.360;2023-07-29T13:01:37;3.28;;;1.70;;
79128;SDS011;68529;43.286;23.360;2023-07-29T13:04:02;1.40;;;1.30;;
79128;SDS011;68529;43.286;23.360;2023-07-29T13:06:29;3.80;;;1.88;;
79128;SDS011;68529;43.286;23.360;2023-07-29T13:08:54;3.75;;;1.60;;
79128;SDS011;68529;43.286;23.360;2023-07-29T13:11:20;3.03;;;1.65;;
79128;SDS011;68529;43.286;23.360;2023-07-29T13:13:45;1.83;;;1.73;;
79128;SDS011;68529;43.286;23.360;2023-07-29T13:16:11;2.42;;;1.90;;
79128;SDS011;68529;43.286;23.360;2023-07-29T13:18:38;1.73;;;1.63;;
79128;SDS011;68529;43.286;23.360;2023-07-29T13:21:03;1.58;;;1.48;;
79128;SDS011;68529;43.286;23.360;2023-07-29T13:23:29;2.67;;;1.70;;
79128;SDS011;68529;43.286;23.360;2023-07-29T13:25:55;1.80;;;1.70;;
79128;SDS011;68529;43.286;23.360;2023-07-29T13:28:21;2.42;;;1.88;;
79128;SDS011;68529;43.286;23.360;2023-07-29T13:30:46;2.85;;;1.83;;
79128;SDS011;68529;43.286;23.360;2023-07-29T13:33:12;8.98;;;2.38;;
79128;SDS011;68529;43.286;23.360;2023-07-29T13:35:37;2.65;;;1.90;;
79128;SDS011;68529;43.286;23.360;2023-07-29T13:38:02;2.25;;;2.05;;
79128;SDS011;68529;43.286;23.360;2023-07-29T13:40:28;2.53;;;1.70;;
79128;SDS011;68529;43.286;23.360;2023-07-29T13:42:54;1.67;;;1.58;;
79128;SDS011;68529;43.286;23.360;2023-07-29T13:45:20;3.10;;;2.00;;
79128;SDS011;68529;43.286;23.360;2023-07-29T13:47:46;1.70;;;1.60;;
79128;SDS011;68529;43.286;23.360;2023-07-29T13:50:11;1.77;;;1.67;;
79128;SDS011;68529;43.286;23.360;2023-07-29T13:52:37;2.08;;;1.70;;
79128;SDS011;68529;43.286;23.360;2023-07-29T13:55:03;2.58;;;1.75;;
79128;SDS011;68529;43.286;23.360;2023-07-29T13:57:29;2.08;;;1.50;;
79128;SDS011;68529;43.286;23.360;2023-07-29T13:59:55;2.58;;;1.92;;
79128;SDS011;68529;43.286;23.360;2023-07-29T14:02:20;2.15;;;1.48;;
79128;SDS011;68529;43.286;23.360;2023-07-29T14:04:46;2.03;;;1.73;;
79128;SDS011;68529;43.286;23.360;2023-07-29T14:07:12;1.92;;;1.80;;
79128;SDS011;68529;43.286;23.360;2023-07-29T14:09:37;6.75;;;2.45;;
79128;SDS011;68529;43.286;23.360;2023-07-29T14:12:03;3.90;;;1.70;;
79128;SDS011;68529;43.286;23.360;2023-07-29T14:14:29;5.93;;;2.20;;
79128;SDS011;68529;43.286;23.360;2023-07-29T14:16:55;9.20;;;2.53;;
79128;SDS011;68529;43.286;23.360;2023-07-29T14:19:20;4.40;;;2.28;;
79128;SDS011;68529;43.286;23.360;2023-07-29T14:21:47;6.20;;;3.10;;
79128;SDS011;68529;43.286;23.360;2023-07-29T14:24:16;8.32;;;2.63;;
79128;SDS011;68529;43.286;23.360;2023-07-29T14:27:03;8.18;;;2.15;;
79128;SDS011;68529;43.286;23.360;2023-07-29T14:29:29;1.88;;;1.60;;
79128;SDS011;68529;43.286;23.360;2023-07-29T14:31:56;3.10;;;1.88;;
79128;SDS011;68529;43.286;23.360;2023-07-29T14:34:25;3.70;;;2.30;;
79128;SDS011;68529;43.286;23.360;2023-07-29T14:36:51;6.47;;;2.40;;
79128;SDS011;68529;43.286;23.360;2023-07-29T14:39:18;2.67;;;2.08;;
79128;SDS011;68529;43.286;23.360;2023-07-29T14:41:45;1.80;;;1.70;;
79128;SDS011;68529;43.286;23.360;2023-07-29T14:44:17;5.10;;;2.55;;
79128;SDS011;68529;43.286;23.360;2023-07-29T14:46:43;25.92;;;3.67;;
79128;SDS011;68529;43.286;23.360;2023-07-29T14:49:08;8.30;;;1.92;;